Time;durP1;ratioP1;P1;durP2;ratioP2;P2;SDS_P1;SDS_P2;PMS_P1;PMS_P2;Temp;Humidity;BMP_temperature;BMP_pressure;BME280_temperature;BME280_humidity;BME280_pressure;Samples;Min_cycle;Max_cycle;Signal;HPM_P1;HPM_P2
2022/06/20 00:00:41;;;;;;;;;;;24.40;99.90;;;;;;5015662;28;19909;-69
2022/06/20 00:03:16;;;;;;;;;;;24.40;99.90;;;;;;5014823;28;19913;-69
2022/06/20 00:05:41;;;;;;;;;;;24.30;99.90;;;;;;5012370;28;19920;-70
2022/06/20 00:08:08;;;;;;;;;;;24.30;99.90;;;;;;5009384;28;19910;-69
2022/06/20 00:10:34;;;;;;;;;;;24.30;99.90;;;;;;5015178;28;20286;-69
2022/06/20 00:13:01;;;;;;;;;;;24.30;99.90;;;;;;5015480;28;19917;-69
2022/06/20 00:15:32;;;;;;;;;;;24.30;99.90;;;;;;5000270;28;19909;-69
2022/06/20 00:17:59;;;;;;;;;;;24.30;99.90;;;;;;5010649;28;19912;-69
2022/06/20 00:20:25;;;;;;;;;;;24.30;99.90;;;;;;5016374;28;19913;-69
2022/06/20 00:22:50;;;;;;;;;;;24.30;99.90;;;;;;5014686;28;19922;-70
2022/06/20 00:25:16;;;;;;;;;;;24.30;99.90;;;;;;5015045;28;19910;-70
2022/06/20 00:27:43;;;;;;;;;;;24.30;99.90;;;;;;5013580;28;20008;-70
2022/06/20 00:30:10;;;;;;;;;;;24.30;99.90;;;;;;5014027;28;19906;-70
2022/06/20 00:32:35;;;;;;;;;;;24.20;99.90;;;;;;5014009;28;20004;-70
2022/06/20 00:35:02;;;;;;;;;;;24.20;99.90;;;;;;5014340;28;20003;-69
2022/06/20 00:37:27;;;;;;;;;;;24.30;99.90;;;;;;5014626;28;19909;-70
2022/06/20 00:39:53;;;;;;;;;;;24.20;99.90;;;;;;5015233;28;20263;-70
2022/06/20 00:42:18;;;;;;;;;;;24.20;99.90;;;;;;5014768;28;19917;-70
2022/06/20 00:44:49;;;;;;;;;;;24.20;99.90;;;;;;5013812;28;19911;-70
2022/06/20 00:47:20;;;;;;;;;;;24.10;99.90;;;;;;5014522;28;19963;-69
2022/06/20 00:49:48;;;;;;;;;;;24.20;99.90;;;;;;5013969;28;19913;-70
2022/06/20 00:52:16;;;;;;;;;;;24.20;99.90;;;;;;5014355;28;19924;-70
2022/06/20 00:54:55;;;;;;;;;;;24.20;99.90;;;;;;5014560;28;19910;-70
2022/06/20 00:57:47;;;;;;;;;;;24.10;99.90;;;;;;5012960;28;19964;-70
2022/06/20 01:00:15;;;;;;;;;;;24.10;99.90;;;;;;4990064;28;19952;-70
2022/06/20 01:02:43;;;;;;;;;;;24.10;99.90;;;;;;4993224;28;19906;-70
2022/06/20 01:05:12;;;;;;;;;;;24.10;99.90;;;;;;4992519;28;19948;-70
2022/06/20 01:07:41;;;;;;;;;;;24.00;99.90;;;;;;4993624;28;19916;-70
2022/06/20 01:10:08;;;;;;;;;;;24.00;99.90;;;;;;4992150;28;19909;-70
2022/06/20 01:12:41;;;;;;;;;;;24.10;99.90;;;;;;4992617;28;20391;-69
2022/06/20 01:15:20;;;;;;;;;;;24.00;99.90;;;;;;4975615;28;19957;-70
2022/06/20 01:17:46;;;;;;;;;;;24.00;99.90;;;;;;4989791;28;20287;-70
2022/06/20 01:20:14;;;;;;;;;;;24.00;99.90;;;;;;4992317;28;20001;-70
2022/06/20 01:22:43;;;;;;;;;;;23.90;99.90;;;;;;4991939;28;19969;-69
2022/06/20 01:25:11;;;;;;;;;;;23.90;99.90;;;;;;4992271;28;20405;-70
2022/06/20 01:27:39;;;;;;;;;;;23.90;99.90;;;;;;4992200;28;19925;-70
2022/06/20 01:30:04;;;;;;;;;;;24.00;99.90;;;;;;4991214;28;19906;-70
2022/06/20 01:32:31;;;;;;;;;;;23.80;99.90;;;;;;4991744;28;20000;-70
2022/06/20 01:34:57;;;;;;;;;;;23.90;99.90;;;;;;4991998;28;19909;-69
2022/06/20 01:37:23;;;;;;;;;;;23.80;99.90;;;;;;4993601;28;19909;-70
2022/06/20 01:39:49;;;;;;;;;;;23.80;99.90;;;;;;4993080;28;20383;-70
2022/06/20 01:42:18;;;;;;;;;;;23.90;99.90;;;;;;4993540;28;19910;-70
2022/06/20 01:44:46;;;;;;;;;;;23.80;99.90;;;;;;4993587;28;20406;-69
2022/06/20 01:47:12;;;;;;;;;;;23.80;99.90;;;;;;4993614;28;20369;-69
2022/06/20 01:49:39;;;;;;;;;;;23.80;99.90;;;;;;4993659;28;19976;-69
2022/06/20 01:52:11;;;;;;;;;;;23.80;99.90;;;;;;4993863;28;19918;-70
2022/06/20 01:54:48;;;;;;;;;;;23.70;99.90;;;;;;4994411;28;19923;-76
2022/06/20 01:57:14;;;;;;;;;;;23.80;99.90;;;;;;4993764;28;19910;-77
2022/06/20 02:00:06;;;;;;;;;;;23.80;99.90;;;;;;4991250;28;20989;-76
2022/06/20 02:02:34;;;;;;;;;;;23.80;99.90;;;;;;4992594;28;20358;-76
2022/06/20 02:05:02;;;;;;;;;;;23.80;99.90;;;;;;4993525;28;19918;-76
2022/06/20 02:07:27;;;;;;;;;;;23.70;99.90;;;;;;4993483;28;19909;-76
2022/06/20 02:09:53;;;;;;;;;;;23.80;99.90;;;;;;4994002;28;20343;-76
2022/06/20 02:12:19;;;;;;;;;;;23.80;99.90;;;;;;4993322;28;19921;-76
2022/06/20 02:14:47;;;;;;;;;;;23.80;99.90;;;;;;4992273;28;19910;-77
2022/06/20 02:17:21;;;;;;;;;;;23.90;99.90;;;;;;4993463;28;19913;-76
2022/06/20 02:19:49;;;;;;;;;;;23.80;99.90;;;;;;4995024;28;19913;-76
2022/06/20 02:22:15;;;;;;;;;;;23.80;99.90;;;;;;4998909;28;19924;-76
2022/06/20 02:24:42;;;;;;;;;;;23.90;99.90;;;;;;5013353;28;19932;-75
2022/06/20 02:27:13;;;;;;;;;;;23.90;99.90;;;;;;5012407;28;19909;-76
2022/06/20 02:29:39;;;;;;;;;;;23.80;99.90;;;;;;5009849;28;20278;-76
2022/06/20 02:32:09;;;;;;;;;;;23.80;99.90;;;;;;5012457;28;19917;-76
2022/06/20 02:34:35;;;;;;;;;;;23.80;99.90;;;;;;5013311;28;19947;-76
2022/06/20 02:37:01;;;;;;;;;;;23.80;99.90;;;;;;5012947;28;19949;-77
2022/06/20 02:39:28;;;;;;;;;;;23.80;99.90;;;;;;5012770;28;19954;-75
2022/06/20 02:41:57;;;;;;;;;;;23.80;99.90;;;;;;5003995;28;19952;-76
2022/06/20 02:44:24;;;;;;;;;;;23.80;99.90;;;;;;5014883;28;19932;-77
2022/06/20 02:46:51;;;;;;;;;;;23.80;99.90;;;;;;5012915;28;20595;-76
2022/06/20 02:49:19;;;;;;;;;;;23.70;99.90;;;;;;5012482;28;19910;-76
2022/06/20 02:51:56;;;;;;;;;;;23.70;99.90;;;;;;5012697;28;19964;-76
2022/06/20 02:54:23;;;;;;;;;;;23.70;99.90;;;;;;5012818;28;19919;-76
2022/06/20 02:56:52;;;;;;;;;;;23.80;99.90;;;;;;5011934;28;19906;-76
2022/06/20 02:59:23;;;;;;;;;;;23.80;99.90;;;;;;5014039;28;19909;-77
2022/06/20 03:02:00;;;;;;;;;;;23.80;99.90;;;;;;5012555;28;19920;-75
2022/06/20 03:04:27;;;;;;;;;;;23.70;99.90;;;;;;5012363;28;19909;-76
2022/06/20 03:06:55;;;;;;;;;;;23.70;99.90;;;;;;5012748;28;19909;-76
2022/06/20 03:09:24;;;;;;;;;;;23.70;99.90;;;;;;5012706;28;19917;-76
2022/06/20 03:11:50;;;;;;;;;;;23.70;99.90;;;;;;5013237;28;20400;-76
2022/06/20 03:14:17;;;;;;;;;;;23.70;99.90;;;;;;5016047;28;19956;-76
2022/06/20 03:16:42;;;;;;;;;;;23.70;99.90;;;;;;5016398;28;19997;-76
2022/06/20 03:19:16;;;;;;;;;;;23.70;99.90;;;;;;5016366;28;20344;-76
2022/06/20 03:21:43;;;;;;;;;;;23.70;99.90;;;;;;5015755;28;19909;-76
2022/06/20 03:24:09;;;;;;;;;;;23.60;99.90;;;;;;5015724;28;19914;-76
2022/06/20 03:26:35;;;;;;;;;;;23.70;99.90;;;;;;5015478;28;19964;-76
2022/06/20 03:29:00;;;;;;;;;;;23.60;99.90;;;;;;5016052;28;19964;-76
2022/06/20 03:31:26;;;;;;;;;;;23.60;99.90;;;;;;5016036;28;19972;-76
2022/06/20 03:33:52;;;;;;;;;;;23.60;99.90;;;;;;5016326;28;20377;-77
2022/06/20 03:36:20;;;;;;;;;;;23.60;99.90;;;;;;5014671;28;19943;-76
2022/06/20 03:38:46;;;;;;;;;;;23.60;99.90;;;;;;5015893;28;19963;-76
2022/06/20 03:41:13;;;;;;;;;;;23.50;99.90;;;;;;5015519;28;19909;-76
2022/06/20 03:43:40;;;;;;;;;;;23.60;99.90;;;;;;5015681;28;19905;-76
2022/06/20 03:46:10;;;;;;;;;;;23.60;99.90;;;;;;5016046;28;19917;-76
2022/06/20 03:48:38;;;;;;;;;;;23.60;99.90;;;;;;5014502;28;19909;-76
2022/06/20 03:51:14;;;;;;;;;;;23.60;99.90;;;;;;5014610;28;20003;-76
2022/06/20 03:53:49;;;;;;;;;;;23.60;99.90;;;;;;5013515;28;20623;-76
2022/06/20 03:56:15;;;;;;;;;;;23.60;99.90;;;;;;5014891;28;20406;-76
2022/06/20 03:59:01;;;;;;;;;;;23.60;99.90;;;;;;5015804;28;19909;-76
2022/06/20 04:01:33;;;;;;;;;;;23.50;99.90;;;;;;5014977;28;20012;-76
2022/06/20 04:04:05;;;;;;;;;;;23.50;99.90;;;;;;5016022;28;20400;-76
2022/06/20 04:06:34;;;;;;;;;;;23.60;99.90;;;;;;5000542;28;19987;-77
2022/06/20 04:11:57;;;;;;;;;;;23.50;99.90;;;;;;5013585;28;19970;-76
2022/06/20 04:14:25;;;;;;;;;;;23.60;99.90;;;;;;5015098;28;19909;-76
2022/06/20 04:16:50;;;;;;;;;;;23.50;99.90;;;;;;5016544;28;19913;-76
2022/06/20 04:19:21;;;;;;;;;;;23.50;99.90;;;;;;5015177;28;19952;-76
2022/06/20 04:21:55;;;;;;;;;;;23.50;99.90;;;;;;5014918;28;19955;-76
2022/06/20 04:24:32;;;;;;;;;;;23.60;99.90;;;;;;5014413;28;19921;-77
2022/06/20 04:27:10;;;;;;;;;;;23.50;99.90;;;;;;5010285;28;19905;-76
2022/06/20 04:29:41;;;;;;;;;;;23.60;99.90;;;;;;5015843;28;19913;-76
2022/06/20 04:32:10;;;;;;;;;;;23.50;99.90;;;;;;5015104;28;19948;-76
2022/06/20 04:34:39;;;;;;;;;;;23.50;99.90;;;;;;5014771;28;20367;-76
2022/06/20 04:37:05;;;;;;;;;;;23.50;99.90;;;;;;5014712;28;19909;-76
2022/06/20 04:39:50;;;;;;;;;;;23.50;99.90;;;;;;5014512;28;20398;-76
2022/06/20 04:42:20;;;;;;;;;;;23.50;99.90;;;;;;5006952;28;19910;-76
2022/06/20 04:44:53;;;;;;;;;;;23.60;99.90;;;;;;5013970;28;19909;-76
2022/06/20 04:47:27;;;;;;;;;;;23.60;99.90;;;;;;5014756;28;20282;-76
2022/06/20 04:49:53;;;;;;;;;;;23.60;99.90;;;;;;5014667;28;20019;-76
2022/06/20 04:52:21;;;;;;;;;;;23.50;99.90;;;;;;5014246;28;20375;-76
2022/06/20 04:54:47;;;;;;;;;;;23.50;99.90;;;;;;5015586;28;20091;-76
2022/06/20 04:57:13;;;;;;;;;;;23.60;99.90;;;;;;5014484;28;20548;-76
2022/06/20 04:59:40;;;;;;;;;;;23.60;99.90;;;;;;5011976;28;19992;-76
2022/06/20 05:02:09;;;;;;;;;;;23.60;99.90;;;;;;5014210;28;20286;-76
2022/06/20 05:04:37;;;;;;;;;;;23.60;99.90;;;;;;5013929;28;19914;-76
2022/06/20 05:07:05;;;;;;;;;;;23.60;99.90;;;;;;5013723;28;20440;-76
2022/06/20 05:09:36;;;;;;;;;;;23.70;99.90;;;;;;5013206;28;19909;-75
2022/06/20 05:12:05;;;;;;;;;;;23.70;99.90;;;;;;5013139;28;20428;-76
2022/06/20 05:14:49;;;;;;;;;;;23.80;99.90;;;;;;5014384;28;20289;-76
2022/06/20 05:17:17;;;;;;;;;;;23.80;99.90;;;;;;5014067;28;19916;-76
2022/06/20 05:19:45;;;;;;;;;;;23.80;99.90;;;;;;5014338;28;19909;-75
2022/06/20 05:22:12;;;;;;;;;;;23.80;99.90;;;;;;5008121;28;19924;-76
2022/06/20 05:24:39;;;;;;;;;;;23.80;99.90;;;;;;5014430;28;19920;-76
2022/06/20 05:27:10;;;;;;;;;;;23.80;99.90;;;;;;5012816;28;19905;-80
2022/06/20 05:29:37;;;;;;;;;;;23.80;99.90;;;;;;5014981;28;20285;-75
2022/06/20 05:32:05;;;;;;;;;;;23.90;99.90;;;;;;5013326;28;20389;-75
2022/06/20 05:34:33;;;;;;;;;;;24.00;99.90;;;;;;5014669;28;20000;-74
2022/06/20 05:37:05;;;;;;;;;;;24.00;99.90;;;;;;5013421;28;19910;-75
2022/06/20 05:39:50;;;;;;;;;;;24.00;99.90;;;;;;5009929;28;19975;-75
2022/06/20 05:42:16;;;;;;;;;;;24.10;99.90;;;;;;5012797;28;20382;-74
2022/06/20 05:44:42;;;;;;;;;;;24.20;99.90;;;;;;5010331;28;19909;-74
2022/06/20 05:47:15;;;;;;;;;;;24.20;99.90;;;;;;5008271;28;19979;-74
2022/06/20 05:49:47;;;;;;;;;;;24.10;99.90;;;;;;5009565;28;20385;-74
2022/06/20 05:52:17;;;;;;;;;;;24.10;99.90;;;;;;5013368;28;19917;-75
2022/06/20 05:54:46;;;;;;;;;;;24.20;99.90;;;;;;5013234;28;19910;-74
2022/06/20 05:57:13;;;;;;;;;;;24.20;99.90;;;;;;5013749;28;20405;-74
2022/06/20 05:59:42;;;;;;;;;;;24.20;99.90;;;;;;5010231;28;20306;-75
2022/06/20 06:02:14;;;;;;;;;;;24.20;99.90;;;;;;5013293;28;19916;-73
2022/06/20 06:04:47;;;;;;;;;;;24.20;99.90;;;;;;5011955;28;19913;-74
2022/06/20 06:07:16;;;;;;;;;;;24.30;99.90;;;;;;5011786;28;19913;-73
2022/06/20 06:09:45;;;;;;;;;;;24.30;99.90;;;;;;5012921;28;19914;-74
2022/06/20 06:12:13;;;;;;;;;;;24.40;99.90;;;;;;5011950;28;20413;-73
2022/06/20 06:14:48;;;;;;;;;;;24.40;99.90;;;;;;5008220;28;20012;-74
2022/06/20 06:17:20;;;;;;;;;;;24.50;99.90;;;;;;5012719;28;19910;-74
2022/06/20 06:19:54;;;;;;;;;;;24.50;99.90;;;;;;5012919;28;20393;-74
2022/06/20 06:22:23;;;;;;;;;;;24.50;99.90;;;;;;5012138;28;19932;-74
2022/06/20 06:24:52;;;;;;;;;;;24.50;99.90;;;;;;5013274;28;20406;-73
2022/06/20 06:27:23;;;;;;;;;;;24.60;99.90;;;;;;5013095;28;19909;-74
2022/06/20 06:29:55;;;;;;;;;;;24.70;99.90;;;;;;5011463;28;20359;-74
2022/06/20 06:32:28;;;;;;;;;;;24.70;99.90;;;;;;5012329;28;20016;-76
2022/06/20 06:35:00;;;;;;;;;;;24.80;99.90;;;;;;5005153;28;19933;-74
2022/06/20 06:37:35;;;;;;;;;;;24.90;99.90;;;;;;5011975;28;19945;-74
2022/06/20 06:40:03;;;;;;;;;;;24.90;99.90;;;;;;5013043;28;19921;-75
2022/06/20 06:42:29;;;;;;;;;;;24.90;99.90;;;;;;4997712;28;19944;-74
2022/06/20 06:44:55;;;;;;;;;;;24.90;99.90;;;;;;5011428;28;19909;-76
2022/06/20 06:47:23;;;;;;;;;;;24.90;99.90;;;;;;5009273;28;19967;-76
2022/06/20 06:49:57;;;;;;;;;;;25.00;99.90;;;;;;5016541;28;19910;-75
2022/06/20 06:52:38;;;;;;;;;;;25.10;99.90;;;;;;5017887;28;19921;-75
2022/06/20 06:55:03;;;;;;;;;;;25.10;99.90;;;;;;5017156;28;19909;-74
2022/06/20 06:57:41;;;;;;;;;;;25.10;99.90;;;;;;5016920;28;20410;-74
2022/06/20 07:00:07;;;;;;;;;;;25.20;99.90;;;;;;5013222;28;19941;-71
2022/06/20 07:02:36;;;;;;;;;;;25.20;99.90;;;;;;5016724;28;20390;-71
2022/06/20 07:05:05;;;;;;;;;;;25.30;99.90;;;;;;5016046;28;19909;-72
2022/06/20 07:07:43;;;;;;;;;;;25.20;99.90;;;;;;5016583;28;20458;-73
2022/06/20 07:10:16;;;;;;;;;;;25.30;99.90;;;;;;5016377;28;19910;-72
2022/06/20 07:12:45;;;;;;;;;;;25.30;99.90;;;;;;5017014;28;19917;-73
2022/06/20 07:15:12;;;;;;;;;;;25.40;99.90;;;;;;5016237;28;19905;-73
2022/06/20 07:17:58;;;;;;;;;;;25.40;99.90;;;;;;5015633;28;19905;-73
2022/06/20 07:20:27;;;;;;;;;;;25.50;99.90;;;;;;5016611;28;19917;-72
2022/06/20 07:22:53;;;;;;;;;;;25.50;99.90;;;;;;5015953;28;19971;-77
2022/06/20 07:25:34;;;;;;;;;;;25.60;99.90;;;;;;5016659;28;19995;-77
2022/06/20 07:28:13;;;;;;;;;;;25.60;99.90;;;;;;5016262;28;20317;-77
2022/06/20 07:30:59;;;;;;;;;;;25.70;99.90;;;;;;5003382;28;19924;-76
2022/06/20 07:33:34;;;;;;;;;;;25.70;99.90;;;;;;5015495;28;19941;-72
2022/06/20 07:36:01;;;;;;;;;;;25.80;99.90;;;;;;5011521;28;20012;-78
2022/06/20 07:38:53;;;;;;;;;;;25.70;99.90;;;;;;5015544;28;20299;-77
2022/06/20 07:41:21;;;;;;;;;;;25.70;99.90;;;;;;4973147;28;19953;-82
2022/06/20 07:43:47;;;;;;;;;;;25.80;99.90;;;;;;4973925;28;19909;-81
2022/06/20 07:46:14;;;;;;;;;;;25.80;99.90;;;;;;5053983;23;19991;-69
2022/06/20 07:48:42;;;;;;;;;;;25.80;99.90;;;;;;5036174;28;19909;-69
2022/06/20 07:51:16;;;;;;;;;;;25.90;99.90;;;;;;5035414;28;19967;-69
2022/06/20 07:54:05;;;;;;;;;;;25.90;99.90;;;;;;5032996;28;19916;-69
2022/06/20 07:56:37;;;;;;;;;;;25.90;99.90;;;;;;5028163;28;19909;-69
2022/06/20 07:59:08;;;;;;;;;;;26.00;99.90;;;;;;5035911;28;19963;-69
2022/06/20 08:01:37;;;;;;;;;;;26.00;99.90;;;;;;5037112;28;20392;-69
2022/06/20 08:04:05;;;;;;;;;;;26.10;99.90;;;;;;5036674;28;19909;-69
2022/06/20 08:06:42;;;;;;;;;;;26.10;99.90;;;;;;5036982;28;19912;-69
2022/06/20 08:09:16;;;;;;;;;;;26.10;99.90;;;;;;5036149;28;20028;-69
2022/06/20 08:11:45;;;;;;;;;;;26.20;99.90;;;;;;5034384;28;19964;-69
2022/06/20 08:14:25;;;;;;;;;;;26.20;99.90;;;;;;5036383;28;19909;-69
2022/06/20 08:16:53;;;;;;;;;;;26.20;99.90;;;;;;5030459;28;20419;-69
2022/06/20 08:19:19;;;;;;;;;;;26.20;99.90;;;;;;5030591;28;19910;-68
2022/06/20 08:21:46;;;;;;;;;;;26.20;99.90;;;;;;5036758;28;19919;-69
2022/06/20 08:24:17;;;;;;;;;;;26.20;99.90;;;;;;5036351;28;19913;-68
2022/06/20 08:26:47;;;;;;;;;;;26.30;99.90;;;;;;5034009;28;19983;-70
2022/06/20 08:29:15;;;;;;;;;;;26.30;99.90;;;;;;5036215;28;19952;-71
2022/06/20 08:31:43;;;;;;;;;;;26.30;99.90;;;;;;5036212;28;20289;-68
2022/06/20 08:34:14;;;;;;;;;;;26.40;99.90;;;;;;5035982;28;19909;-68
2022/06/20 08:36:41;;;;;;;;;;;26.50;99.90;;;;;;5036275;28;19909;-68
2022/06/20 08:39:12;;;;;;;;;;;26.50;99.90;;;;;;5035281;28;19905;-68
2022/06/20 08:41:56;;;;;;;;;;;26.60;99.90;;;;;;5035275;28;19905;-68
2022/06/20 08:44:40;;;;;;;;;;;26.50;99.90;;;;;;5035964;28;19924;-68
2022/06/20 08:47:24;;;;;;;;;;;26.50;99.40;;;;;;5035679;28;19909;-68
2022/06/20 08:50:22;;;;;;;;;;;26.70;99.50;;;;;;5037225;28;20388;-68
2022/06/20 08:52:50;;;;;;;;;;;26.90;99.50;;;;;;4974816;28;20358;-68
2022/06/20 08:55:16;;;;;;;;;;;26.90;99.00;;;;;;4974919;28;19921;-69
2022/06/20 08:57:56;;;;;;;;;;;26.70;98.60;;;;;;4975023;28;20362;-68
2022/06/20 09:00:45;;;;;;;;;;;26.70;98.20;;;;;;4974551;28;19914;-68
2022/06/20 09:03:11;;;;;;;;;;;26.80;98.30;;;;;;4972024;28;20397;-68
2022/06/20 09:05:47;;;;;;;;;;;26.80;97.90;;;;;;4974161;28;20362;-68
2022/06/20 09:08:16;;;;;;;;;;;26.90;98.20;;;;;;4974393;28;19933;-68
2022/06/20 09:10:41;;;;;;;;;;;26.90;97.00;;;;;;4974396;28;19914;-68
2022/06/20 09:13:20;;;;;;;;;;;27.00;97.00;;;;;;4974446;28;19933;-68
2022/06/20 09:15:48;;;;;;;;;;;27.10;97.40;;;;;;4974456;28;20045;-68
2022/06/20 09:18:19;;;;;;;;;;;27.20;97.50;;;;;;4974343;28;19906;-68
2022/06/20 09:20:52;;;;;;;;;;;27.30;97.20;;;;;;4972241;28;19945;-68
2022/06/20 09:23:27;;;;;;;;;;;27.30;97.00;;;;;;4974176;28;19910;-68
2022/06/20 09:25:57;;;;;;;;;;;27.30;96.50;;;;;;4974151;28;20024;-68
2022/06/20 09:28:25;;;;;;;;;;;27.30;95.70;;;;;;5005374;28;19919;-68
2022/06/20 09:31:14;;;;;;;;;;;27.40;95.60;;;;;;5035117;28;19929;-68
2022/06/20 09:33:44;;;;;;;;;;;27.40;95.50;;;;;;5021072;28;20273;-68
2022/06/20 09:36:12;;;;;;;;;;;27.60;94.90;;;;;;5034338;28;19905;-68
2022/06/20 09:38:47;;;;;;;;;;;27.60;94.90;;;;;;5034266;28;19905;-68
2022/06/20 09:41:13;;;;;;;;;;;27.80;95.30;;;;;;5034745;28;20377;-68
2022/06/20 09:43:49;;;;;;;;;;;27.70;94.90;;;;;;5034739;28;19916;-68
2022/06/20 09:46:28;;;;;;;;;;;27.90;94.40;;;;;;5034570;28;19955;-68
2022/06/20 09:49:05;;;;;;;;;;;28.00;91.80;;;;;;5034812;28;20255;-69
2022/06/20 09:51:49;;;;;;;;;;;28.00;87.30;;;;;;5019295;28;19924;-68
2022/06/20 09:54:24;;;;;;;;;;;28.10;89.30;;;;;;5034679;28;19908;-69
2022/06/20 09:57:08;;;;;;;;;;;28.20;87.50;;;;;;5034012;28;20449;-69
2022/06/20 09:59:51;;;;;;;;;;;28.10;88.10;;;;;;5034812;28;19909;-68
2022/06/20 10:02:28;;;;;;;;;;;28.10;89.30;;;;;;5034777;28;20285;-68
2022/06/20 10:04:59;;;;;;;;;;;28.30;88.20;;;;;;5034461;28;19909;-69
2022/06/20 10:07:31;;;;;;;;;;;28.50;86.10;;;;;;5035824;28;19916;-68
2022/06/20 10:10:00;;;;;;;;;;;28.50;86.50;;;;;;5034774;28;20392;-69
2022/06/20 10:12:25;;;;;;;;;;;28.60;81.70;;;;;;5034440;28;20305;-68
2022/06/20 10:15:11;;;;;;;;;;;28.70;79.80;;;;;;5034037;28;19905;-68
2022/06/20 10:17:46;;;;;;;;;;;28.60;76.60;;;;;;5035529;28;19909;-68
2022/06/20 10:20:20;;;;;;;;;;;28.60;78.70;;;;;;5034401;28;19909;-69
2022/06/20 10:22:57;;;;;;;;;;;28.60;75.80;;;;;;5033821;28;20011;-69
2022/06/20 10:25:32;;;;;;;;;;;28.60;75.90;;;;;;5034347;28;20516;-69
2022/06/20 10:28:36;;;;;;;;;;;28.60;72.10;;;;;;5034577;28;20380;-69
2022/06/20 10:31:15;;;;;;;;;;;28.60;72.40;;;;;;4944423;28;19918;-69
2022/06/20 10:33:43;;;;;;;;;;;28.50;73.00;;;;;;4955499;28;20497;-68
2022/06/20 10:36:21;;;;;;;;;;;28.50;73.00;;;;;;4953459;28;19949;-69
2022/06/20 10:39:09;;;;;;;;;;;28.50;74.70;;;;;;4953405;29;19914;-69
2022/06/20 10:41:53;;;;;;;;;;;28.70;73.60;;;;;;4945044;28;20468;-69
2022/06/20 10:44:36;;;;;;;;;;;28.80;71.80;;;;;;4955220;28;20306;-69
2022/06/20 10:47:05;;;;;;;;;;;28.80;72.10;;;;;;4939215;29;20374;-69
2022/06/20 10:49:48;;;;;;;;;;;29.00;70.80;;;;;;4954282;28;19910;-69
2022/06/20 10:52:14;;;;;;;;;;;28.90;71.50;;;;;;4954287;28;20037;-69
2022/06/20 10:54:39;;;;;;;;;;;28.80;73.10;;;;;;4955079;28;20399;-69
2022/06/20 10:57:17;;;;;;;;;;;29.00;71.10;;;;;;4952245;28;19913;-69
2022/06/20 10:59:57;;;;;;;;;;;28.90;70.60;;;;;;4948378;29;20380;-69
2022/06/20 11:02:28;;;;;;;;;;;29.00;71.20;;;;;;5011137;28;19979;-70
2022/06/20 11:05:00;;;;;;;;;;;29.00;69.90;;;;;;5033537;28;19955;-70
2022/06/20 11:07:44;;;;;;;;;;;28.90;71.00;;;;;;5033488;28;19967;-70
2022/06/20 11:10:28;;;;;;;;;;;29.10;71.10;;;;;;5033507;28;19909;-70
2022/06/20 11:12:57;;;;;;;;;;;29.10;72.80;;;;;;5033069;28;19979;-70
2022/06/20 11:15:25;;;;;;;;;;;29.00;70.60;;;;;;5033525;28;19909;-70
2022/06/20 11:17:57;;;;;;;;;;;29.00;67.60;;;;;;5031536;28;19982;-71
2022/06/20 11:20:30;;;;;;;;;;;28.90;69.30;;;;;;5033375;28;20362;-69
2022/06/20 11:23:01;;;;;;;;;;;28.80;69.20;;;;;;5027906;28;19919;-70
2022/06/20 11:25:33;;;;;;;;;;;28.90;70.10;;;;;;5034674;28;19949;-69
2022/06/20 11:28:08;;;;;;;;;;;28.90;72.30;;;;;;5033823;28;20332;-69
2022/06/20 11:30:43;;;;;;;;;;;29.00;69.90;;;;;;5018504;28;19909;-70
2022/06/20 11:33:14;;;;;;;;;;;29.10;67.80;;;;;;5032858;28;19905;-71
2022/06/20 11:35:58;;;;;;;;;;;29.00;69.70;;;;;;5030512;28;19905;-71
2022/06/20 11:38:30;;;;;;;;;;;28.90;71.10;;;;;;5031296;28;20362;-71
2022/06/20 11:40:58;;;;;;;;;;;28.90;71.80;;;;;;5037093;28;19913;-72
2022/06/20 11:43:33;;;;;;;;;;;28.90;69.00;;;;;;5036926;28;19917;-70
2022/06/20 11:46:18;;;;;;;;;;;28.80;69.10;;;;;;5037005;28;19986;-69
2022/06/20 11:49:02;;;;;;;;;;;29.00;69.10;;;;;;5039596;28;19916;-70
2022/06/20 11:51:46;;;;;;;;;;;29.20;68.00;;;;;;5036908;28;19925;-70
2022/06/20 11:54:12;;;;;;;;;;;29.10;70.10;;;;;;5034211;28;19927;-70
2022/06/20 11:56:50;;;;;;;;;;;29.30;67.20;;;;;;5036691;28;19912;-70
2022/06/20 11:59:16;;;;;;;;;;;29.30;67.00;;;;;;5030761;28;19913;-69
2022/06/20 12:01:44;;;;;;;;;;;29.10;67.10;;;;;;5037038;28;19909;-68
2022/06/20 12:04:15;;;;;;;;;;;29.10;67.60;;;;;;5038069;28;19909;-68
2022/06/20 12:06:40;;;;;;;;;;;29.30;66.90;;;;;;5035504;28;20500;-69
2022/06/20 12:09:13;;;;;;;;;;;29.40;66.70;;;;;;5035826;28;19959;-68
2022/06/20 12:11:45;;;;;;;;;;;29.30;66.20;;;;;;5037568;28;20437;-68
2022/06/20 12:14:19;;;;;;;;;;;29.40;65.10;;;;;;5036377;28;19979;-68
2022/06/20 12:16:48;;;;;;;;;;;29.30;65.30;;;;;;5035235;28;20059;-68
2022/06/20 12:24:49;;;;;;;;;;;29.50;63.40;;;;;;5027994;28;19916;-68
2022/06/20 12:27:16;;;;;;;;;;;29.50;62.50;;;;;;5033415;28;19912;-68
2022/06/20 12:29:43;;;;;;;;;;;29.60;62.90;;;;;;5033463;28;19909;-68
2022/06/20 12:32:18;;;;;;;;;;;29.70;62.90;;;;;;5025900;28;20755;-68
2022/06/20 12:34:43;;;;;;;;;;;29.50;62.40;;;;;;5025991;28;19917;-68
2022/06/20 12:37:22;;;;;;;;;;;29.70;62.40;;;;;;5025955;28;19916;-68
2022/06/20 12:39:57;;;;;;;;;;;29.60;60.70;;;;;;5031864;28;19999;-68
2022/06/20 12:42:22;;;;;;;;;;;29.50;62.30;;;;;;5032091;28;19924;-68
2022/06/20 12:45:06;;;;;;;;;;;29.70;62.00;;;;;;5030332;28;20011;-68
2022/06/20 12:47:41;;;;;;;;;;;29.60;60.40;;;;;;5031057;28;20324;-68
2022/06/20 12:50:10;;;;;;;;;;;29.70;60.50;;;;;;5031374;28;19909;-68
2022/06/20 12:52:38;;;;;;;;;;;29.80;58.20;;;;;;5025597;28;19964;-68
2022/06/20 12:55:04;;;;;;;;;;;29.80;58.40;;;;;;5031547;28;19913;-69
2022/06/20 12:57:49;;;;;;;;;;;30.00;58.50;;;;;;5015916;28;19908;-68
2022/06/20 13:00:20;;;;;;;;;;;30.10;58.60;;;;;;5029064;28;19911;-69
2022/06/20 13:03:05;;;;;;;;;;;29.80;59.00;;;;;;5029497;28;19916;-69
2022/06/20 13:05:45;;;;;;;;;;;29.90;59.90;;;;;;5031208;28;19991;-69
2022/06/20 13:08:11;;;;;;;;;;;30.10;59.80;;;;;;5031679;28;19916;-70
2022/06/20 13:10:43;;;;;;;;;;;30.10;59.50;;;;;;5031195;28;19909;-70
2022/06/20 13:13:18;;;;;;;;;;;30.00;60.20;;;;;;5030992;28;19920;-70
2022/06/20 13:16:02;;;;;;;;;;;30.10;59.50;;;;;;5030952;28;19913;-70
2022/06/20 13:18:36;;;;;;;;;;;30.10;59.30;;;;;;5031695;28;19909;-70
2022/06/20 13:21:02;;;;;;;;;;;30.10;59.30;;;;;;5026903;28;19912;-70
2022/06/20 13:23:28;;;;;;;;;;;29.90;60.00;;;;;;5032483;28;19905;-70
2022/06/20 13:25:56;;;;;;;;;;;29.90;60.20;;;;;;5030701;28;19932;-70
2022/06/20 13:28:24;;;;;;;;;;;30.00;60.20;;;;;;5024876;28;19956;-70
2022/06/20 13:31:08;;;;;;;;;;;30.00;60.10;;;;;;5030596;28;19913;-70
2022/06/20 13:33:46;;;;;;;;;;;29.90;60.40;;;;;;5015277;28;19916;-70
2022/06/20 13:36:27;;;;;;;;;;;29.80;60.80;;;;;;5029968;28;19913;-69
2022/06/20 13:39:13;;;;;;;;;;;30.00;61.40;;;;;;5029876;28;19905;-70
2022/06/20 13:41:48;;;;;;;;;;;29.80;61.60;;;;;;5031552;28;19987;-70
2022/06/20 13:44:25;;;;;;;;;;;29.60;62.50;;;;;;5029905;28;19909;-70
2022/06/20 13:47:02;;;;;;;;;;;29.60;62.40;;;;;;5030545;28;19909;-69
2022/06/20 13:49:46;;;;;;;;;;;29.50;62.70;;;;;;5030240;28;19915;-70
2022/06/20 13:52:23;;;;;;;;;;;29.50;63.10;;;;;;5030219;28;20412;-69
2022/06/20 13:55:07;;;;;;;;;;;29.50;64.50;;;;;;5030871;28;19999;-69
2022/06/20 13:57:35;;;;;;;;;;;29.70;64.00;;;;;;5009714;28;19913;-69
2022/06/20 14:00:06;;;;;;;;;;;29.50;64.80;;;;;;5022804;28;19905;-69
2022/06/20 14:02:39;;;;;;;;;;;29.60;64.80;;;;;;5024197;28;20301;-68
2022/06/20 14:05:22;;;;;;;;;;;29.60;64.60;;;;;;5022567;28;20393;-69
2022/06/20 14:07:50;;;;;;;;;;;29.60;65.00;;;;;;5022822;28;19913;-68
2022/06/20 14:10:35;;;;;;;;;;;29.60;64.80;;;;;;5025508;28;19913;-68
2022/06/20 14:13:03;;;;;;;;;;;29.50;65.40;;;;;;5026642;28;19925;-68
2022/06/20 14:15:36;;;;;;;;;;;29.50;66.20;;;;;;5027434;28;20007;-69
2022/06/20 14:18:23;;;;;;;;;;;29.40;65.70;;;;;;5026384;28;19928;-69
2022/06/20 14:21:06;;;;;;;;;;;29.40;65.90;;;;;;5028616;28;19909;-69
2022/06/20 14:23:33;;;;;;;;;;;29.50;66.70;;;;;;5027475;28;19956;-69
2022/06/20 14:26:01;;;;;;;;;;;29.60;65.80;;;;;;5027085;28;19963;-68
2022/06/20 14:28:34;;;;;;;;;;;29.60;65.30;;;;;;5026957;28;20278;-69
2022/06/20 14:31:19;;;;;;;;;;;29.50;65.80;;;;;;5026795;28;19917;-69
2022/06/20 14:33:46;;;;;;;;;;;29.50;66.20;;;;;;5012208;28;20289;-69
2022/06/20 14:36:18;;;;;;;;;;;29.40;67.20;;;;;;5027289;28;19915;-69
2022/06/20 14:38:48;;;;;;;;;;;29.40;68.20;;;;;;5026344;28;19913;-69
2022/06/20 14:44:01;;;;;;;;;;;29.30;70.00;;;;;;5026495;28;20292;-71
2022/06/20 14:46:33;;;;;;;;;;;29.00;70.50;;;;;;5024710;28;19960;-71
2022/06/20 14:48:59;;;;;;;;;;;29.00;71.60;;;;;;5035173;28;19996;-70
2022/06/20 14:51:27;;;;;;;;;;;29.00;72.60;;;;;;5027922;28;20032;-70
2022/06/20 14:53:53;;;;;;;;;;;29.20;73.20;;;;;;5028965;28;19908;-71